createdAt,value
2022-12-03T00:00:36.880Z,100005.03
2022-12-03T00:03:21.380Z,100009.25
2022-12-03T00:05:50.037Z,100008.53
2022-12-03T00:08:18.956Z,100013.84
2022-12-03T00:10:49.074Z,100023.41
2022-12-03T00:13:17.783Z,100019.94
2022-12-03T00:15:46.207Z,100021.44
2022-12-03T00:18:15.175Z,100019.75
2022-12-03T00:20:43.648Z,100010.16
2022-12-03T00:23:12.449Z,100008.31
2022-12-03T00:25:40.912Z,100010.00
2022-12-03T00:28:11.065Z,100013.59
2022-12-03T00:30:39.704Z,100011.13
2022-12-03T00:33:08.874Z,100008.56
2022-12-03T00:35:37.389Z,100017.38
2022-12-03T00:38:06.159Z,100017.53
2022-12-03T00:40:35.056Z,100018.22
2022-12-03T00:43:03.990Z,100023.47
2022-12-03T00:45:33.767Z,100025.03
2022-12-03T00:48:02.632Z,100017.25
2022-12-03T00:50:31.155Z,100014.59
2022-12-03T00:52:59.906Z,100011.19
2022-12-03T00:55:28.420Z,100011.16
2022-12-03T00:57:57.145Z,100018.03
2022-12-03T01:00:25.718Z,100026.38
2022-12-03T01:02:55.859Z,100017.47
2022-12-03T01:05:24.271Z,100008.84
2022-12-03T01:07:52.994Z,100007.09
2022-12-03T01:10:22.570Z,100005.13
2022-12-03T01:12:51.346Z,100002.66
2022-12-03T01:15:19.985Z,100000.53
2022-12-03T01:17:48.650Z,100005.22
2022-12-03T01:20:18.521Z,100005.06
2022-12-03T01:22:47.295Z,100001.09
2022-12-03T01:25:16.256Z,100010.22
2022-12-03T01:27:45.128Z,100010.50
2022-12-03T01:30:14.645Z,100003.03
2022-12-03T01:32:42.398Z,100002.13
2022-12-03T01:35:10.864Z,100006.53
2022-12-03T01:37:40.987Z,100006.59
2022-12-03T01:40:13.347Z,100014.19
2022-12-03T01:42:43.413Z,100017.13
2022-12-03T01:45:15.172Z,100010.94
2022-12-03T01:47:43.943Z,100012.19
2022-12-03T01:50:19.434Z,100011.25
2022-12-03T01:52:49.821Z,100007.09
2022-12-03T01:55:22.213Z,100003.00
2022-12-03T01:57:54.182Z,100003.81
2022-12-03T02:00:24.713Z,99999.59
2022-12-03T02:02:55.838Z,99996.22
2022-12-03T02:05:27.318Z,100001.44
2022-12-03T02:07:58.583Z,99997.88
2022-12-03T02:10:29.689Z,100003.03
2022-12-03T02:13:02.227Z,100009.09
2022-12-03T02:15:30.752Z,100002.69
2022-12-03T02:17:59.748Z,100006.78
2022-12-03T02:20:28.848Z,100012.19
2022-12-03T02:23:06.616Z,100008.78
2022-12-03T02:25:37.973Z,100020.88
2022-12-03T02:28:09.453Z,100028.66
2022-12-03T02:30:38.395Z,100015.81
2022-12-03T02:33:07.254Z,100023.50
2022-12-03T02:35:37.252Z,100024.25
2022-12-03T02:38:18.637Z,100024.97
2022-12-03T02:40:51.173Z,100012.16
2022-12-03T02:43:20.831Z,100009.56
2022-12-03T02:45:52.935Z,100015.72
2022-12-03T02:48:26.190Z,100011.19
2022-12-03T02:50:56.907Z,100006.28
2022-12-03T02:53:30.949Z,100014.84
2022-12-03T02:56:02.866Z,100012.22
2022-12-03T02:58:34.075Z,100000.81
2022-12-03T03:01:05.087Z,99997.50
2022-12-03T03:03:34.622Z,99993.19
2022-12-03T03:06:04.651Z,99989.88
2022-12-03T03:08:33.435Z,99986.59
2022-12-03T03:11:03.715Z,99988.50
2022-12-03T03:13:34.773Z,99992.91
2022-12-03T03:16:03.899Z,99989.94
2022-12-03T03:18:33.183Z,100002.97
2022-12-03T03:21:01.991Z,99987.16
2022-12-03T03:23:30.960Z,99985.53
2022-12-03T03:26:02.888Z,99981.72
2022-12-03T03:28:35.745Z,99988.19
2022-12-03T03:31:06.381Z,99989.47
2022-12-03T03:33:35.667Z,99995.06
2022-12-03T03:36:04.121Z,99993.69
2022-12-03T03:38:33.724Z,99984.88
2022-12-03T03:41:04.349Z,99984.91
2022-12-03T03:43:35.857Z,99980.63
2022-12-03T03:46:05.967Z,99980.69
2022-12-03T03:48:35.812Z,99986.03
2022-12-03T03:51:08.963Z,99980.75
2022-12-03T03:53:39.769Z,99997.22
2022-12-03T03:56:09.838Z,99984.50
2022-12-03T03:58:40.314Z,99995.53
2022-12-03T04:01:09.842Z,99994.75
2022-12-03T04:03:38.590Z,99996.34
2022-12-03T04:06:07.574Z,100000.84
2022-12-03T04:08:36.492Z,99999.13
2022-12-03T04:11:22.655Z,100002.81
2022-12-03T04:13:53.161Z,100002.00
2022-12-03T04:16:21.592Z,100001.63
2022-12-03T04:18:50.952Z,99995.09
2022-12-03T04:21:38.318Z,99992.38
2022-12-03T04:24:09.062Z,99996.59
2022-12-03T04:26:55.367Z,99993.44
2022-12-03T04:29:25.527Z,100002.72
2022-12-03T04:32:12.070Z,100002.78
2022-12-03T04:34:58.117Z,99997.81
2022-12-03T04:37:26.653Z,100007.88
2022-12-03T04:39:55.496Z,100001.78
2022-12-03T04:42:24.279Z,99995.75
2022-12-03T04:44:54.570Z,99991.50
2022-12-03T04:47:23.447Z,100006.16
2022-12-03T04:49:53.139Z,100005.56
2022-12-03T04:52:22.418Z,100009.81
2022-12-03T04:54:51.204Z,100009.28
2022-12-03T04:57:19.776Z,100022.94
2022-12-03T04:59:48.481Z,100010.88
2022-12-03T05:02:18.660Z,100018.25
2022-12-03T05:04:47.661Z,100026.06
2022-12-03T05:07:16.079Z,100023.13
2022-12-03T05:09:44.909Z,100015.47
2022-12-03T05:12:13.331Z,100019.00
2022-12-03T05:14:42.056Z,100016.06
2022-12-03T05:17:10.528Z,100014.88
2022-12-03T05:19:54.518Z,100018.88
2022-12-03T05:22:22.919Z,100016.25
2022-12-03T05:24:52.119Z,100016.34
2022-12-03T05:27:23.860Z,100011.16
2022-12-03T05:29:53.185Z,100010.41
2022-12-03T05:32:22.096Z,100016.25
2022-12-03T05:34:52.802Z,100014.00
2022-12-03T05:37:21.547Z,100022.16
2022-12-03T05:39:50.254Z,100019.38
2022-12-03T05:42:35.913Z,100020.59
2022-12-03T05:45:05.611Z,100034.00
2022-12-03T05:47:34.419Z,100033.69
2022-12-03T05:50:04.876Z,100036.13
2022-12-03T05:52:33.472Z,100032.00
2022-12-03T05:55:02.129Z,100032.53
2022-12-03T05:57:30.580Z,100044.94
2022-12-03T05:59:59.400Z,100038.72
2022-12-03T06:02:27.922Z,100042.38
2022-12-03T06:04:56.948Z,100048.31
2022-12-03T06:07:26.892Z,100042.13
2022-12-03T06:09:55.836Z,100045.31
2022-12-03T06:12:24.244Z,100041.75
2022-12-03T06:14:55.131Z,100049.59
2022-12-03T06:17:23.787Z,100042.66
2022-12-03T06:19:52.502Z,100043.50
2022-12-03T06:22:21.399Z,100044.28
2022-12-03T06:24:51.763Z,100044.09
2022-12-03T06:27:20.428Z,100042.84
2022-12-03T06:29:49.142Z,100043.16
2022-12-03T06:32:17.640Z,100043.16
2022-12-03T06:34:46.390Z,100043.59
2022-12-03T06:37:14.783Z,100050.44
2022-12-03T06:39:44.160Z,100042.53
2022-12-03T06:42:14.010Z,100046.25
2022-12-03T06:44:42.623Z,100038.88
2022-12-03T06:47:11.088Z,100038.34
2022-12-03T06:49:39.848Z,100036.47
2022-12-03T06:52:08.357Z,100035.97
2022-12-03T06:54:37.045Z,100039.25
2022-12-03T06:57:05.504Z,100040.78
2022-12-03T06:59:37.621Z,100036.19
2022-12-03T07:02:06.268Z,100037.88
2022-12-03T07:04:35.098Z,100042.25
2022-12-03T07:07:03.549Z,100044.63
2022-12-03T07:09:32.421Z,100043.47
2022-12-03T07:12:00.792Z,100043.91
2022-12-03T07:14:29.588Z,100033.09
2022-12-03T07:16:59.322Z,100045.31
2022-12-03T07:19:32.516Z,100051.59
2022-12-03T07:22:01.914Z,100047.78
2022-12-03T07:24:30.583Z,100046.03
2022-12-03T07:26:58.957Z,100069.13
2022-12-03T07:29:27.689Z,100070.53
2022-12-03T07:31:56.167Z,100054.81
2022-12-03T07:34:26.342Z,100051.19
2022-12-03T07:36:54.878Z,100052.25
2022-12-03T07:39:23.738Z,100046.66
2022-12-03T07:41:52.223Z,100043.22
2022-12-03T07:44:21.206Z,100042.47
2022-12-03T07:46:49.693Z,100048.00
2022-12-03T07:49:18.443Z,100043.00
2022-12-03T07:51:54.083Z,100047.34
2022-12-03T07:54:23.012Z,100041.28
2022-12-03T07:56:54.348Z,100051.59
2022-12-03T07:59:25.433Z,100038.63
2022-12-03T08:01:54.165Z,100046.09
2022-12-03T08:04:22.888Z,100039.56
2022-12-03T08:06:52.789Z,100039.66
2022-12-03T08:09:21.521Z,100044.38
2022-12-03T08:11:50.466Z,100043.72
2022-12-03T08:14:21.248Z,100042.28
2022-12-03T08:16:49.974Z,100034.53
2022-12-03T08:19:19.445Z,100036.34
2022-12-03T08:21:47.808Z,100039.72
2022-12-03T08:24:20.209Z,100040.44
2022-12-03T08:26:50.317Z,100043.16
2022-12-03T08:29:21.138Z,100039.16
2022-12-03T08:31:52.233Z,100034.84
2022-12-03T08:34:22.913Z,100035.53
2022-12-03T08:36:53.545Z,100040.19
2022-12-03T08:39:30.630Z,100035.94
2022-12-03T08:42:27.602Z,100044.81
2022-12-03T08:44:56.727Z,100045.75
2022-12-03T08:47:26.286Z,100048.41
2022-12-03T08:49:58.248Z,100045.78
2022-12-03T08:52:33.400Z,100055.53
2022-12-03T08:55:32.469Z,100049.50
2022-12-03T08:58:01.507Z,100056.44
2022-12-03T09:00:30.356Z,100060.00
2022-12-03T09:03:02.219Z,100063.38
2022-12-03T09:05:33.463Z,100055.63
2022-12-03T09:08:02.083Z,100053.91
2022-12-03T09:10:32.310Z,100054.78
2022-12-03T09:13:00.744Z,100044.34
2022-12-03T09:15:29.947Z,100044.31
2022-12-03T09:17:58.415Z,100040.84
2022-12-03T09:20:27.299Z,100035.59
2022-12-03T09:22:55.797Z,100029.50
2022-12-03T09:25:24.793Z,100035.53
2022-12-03T09:27:54.602Z,100031.16
2022-12-03T09:30:23.611Z,100033.00
2022-12-03T09:32:52.154Z,100024.28
2022-12-03T09:35:20.969Z,100024.28
2022-12-03T09:37:49.407Z,100018.19
2022-12-03T09:40:18.443Z,100021.63
2022-12-03T09:42:47.469Z,100025.97
2022-12-03T09:45:18.105Z,100017.31
2022-12-03T09:47:48.898Z,100022.53
2022-12-03T09:50:21.265Z,100012.94
2022-12-03T09:52:51.076Z,100019.94
2022-12-03T09:55:24.096Z,100012.09
2022-12-03T09:57:53.571Z,100017.31
2022-12-03T10:00:26.578Z,100008.59
2022-12-03T10:02:58.701Z,100004.25
2022-12-03T10:05:27.759Z,100007.75
2022-12-03T10:08:04.469Z,99989.44
2022-12-03T10:10:35.363Z,99989.44
2022-12-03T10:13:04.835Z,99987.69
2022-12-03T10:15:35.094Z,99983.31
2022-12-03T10:18:17.143Z,99970.25
2022-12-03T10:20:46.430Z,99963.28
2022-12-03T10:23:21.694Z,99958.88
2022-12-03T10:25:55.857Z,99960.69
2022-12-03T10:28:34.029Z,99955.47
2022-12-03T10:31:06.744Z,99955.44
2022-12-03T10:33:37.736Z,99966.75
2022-12-03T10:36:19.290Z,99966.78
2022-12-03T10:38:47.933Z,99972.88
2022-12-03T10:41:23.370Z,99954.53
2022-12-03T10:43:51.867Z,99962.31
2022-12-03T10:46:24.129Z,99950.91
2022-12-03T10:49:11.184Z,99953.44
2022-12-03T10:51:40.696Z,99939.47
2022-12-03T10:54:18.963Z,99941.25
2022-12-03T10:56:49.135Z,99949.09
2022-12-03T10:59:21.042Z,99929.00
2022-12-03T11:01:52.029Z,99939.53
2022-12-03T11:04:23.820Z,99928.22
2022-12-03T11:06:52.940Z,99924.59
2022-12-03T11:09:26.264Z,99930.72
2022-12-03T11:11:55.676Z,99924.63
2022-12-03T11:15:06.352Z,99910.63
2022-12-03T11:17:49.779Z,99916.66
2022-12-03T11:20:55.491Z,99909.75
2022-12-03T11:23:57.133Z,99921.09
2022-12-03T11:27:08.528Z,99906.19
2022-12-03T11:29:59.784Z,99915.81
2022-12-03T11:33:07.644Z,99919.19
2022-12-03T11:35:54.081Z,99909.72
2022-12-03T11:38:53.345Z,99906.19
2022-12-03T11:41:29.159Z,99904.53
2022-12-03T11:44:31.661Z,99899.19
2022-12-03T11:47:08.671Z,99894.91
2022-12-03T11:49:40.261Z,99895.69
2022-12-03T11:52:40.977Z,99889.38
2022-12-03T11:55:18.463Z,99898.28
2022-12-03T11:57:47.409Z,99884.41
2022-12-03T12:00:22.534Z,99893.13
2022-12-03T12:02:54.991Z,99882.53
2022-12-03T12:05:32.551Z,99883.34
2022-12-03T12:08:03.997Z,99888.66
2022-12-03T12:10:45.495Z,99880.78
2022-12-03T12:13:52.870Z,99880.72
2022-12-03T12:16:45.788Z,99886.81
2022-12-03T12:19:35.203Z,99884.91
2022-12-03T12:22:30.535Z,99873.50
2022-12-03T12:25:01.632Z,99873.66
2022-12-03T12:27:35.998Z,99887.66
2022-12-03T12:30:08.113Z,99894.69
2022-12-03T12:32:45.927Z,99876.25
2022-12-03T12:35:18.056Z,99889.31
2022-12-03T12:37:58.133Z,99890.22
2022-12-03T12:40:31.282Z,99898.84
2022-12-03T12:43:08.252Z,99900.50
2022-12-03T12:45:41.490Z,99880.56
2022-12-03T12:48:18.304Z,99883.22
2022-12-03T12:50:49.439Z,99879.66
2022-12-03T12:53:23.776Z,99878.88
2022-12-03T12:55:57.726Z,99880.44
2022-12-03T12:58:27.948Z,99875.06
2022-12-03T13:00:59.317Z,99874.19
2022-12-03T13:03:30.767Z,99870.41
2022-12-03T13:05:59.934Z,99873.97
2022-12-03T13:08:31.913Z,99875.81
2022-12-03T13:11:03.412Z,99880.19
2022-12-03T13:13:41.791Z,99883.66
2022-12-03T13:16:32.081Z,99879.38
2022-12-03T13:19:01.788Z,99883.59
2022-12-03T13:21:38.877Z,99881.16
2022-12-03T13:24:37.336Z,99884.81
2022-12-03T13:27:25.740Z,99879.75
2022-12-03T13:29:57.465Z,99879.75
2022-12-03T13:32:30.967Z,99884.91
2022-12-03T13:35:05.158Z,99885.81
2022-12-03T13:37:34.568Z,99884.25
2022-12-03T13:40:21.355Z,99886.63
2022-12-03T13:42:52.717Z,99891.88
2022-12-03T13:45:32.463Z,99894.41
2022-12-03T13:48:03.932Z,99892.84
2022-12-03T13:50:37.320Z,99888.75
2022-12-03T13:53:21.252Z,99881.69
2022-12-03T13:55:51.871Z,99883.50
2022-12-03T13:58:22.101Z,99887.06
2022-12-03T14:00:50.998Z,99882.72
2022-12-03T14:03:19.935Z,99888.88
2022-12-03T14:05:48.457Z,99894.09
2022-12-03T14:08:17.629Z,99892.53
2022-12-03T14:10:46.207Z,99899.56
2022-12-03T14:13:15.033Z,99899.50
2022-12-03T14:15:44.962Z,99896.13
2022-12-03T14:18:13.686Z,99896.09
2022-12-03T14:20:42.357Z,99896.09
2022-12-03T14:23:10.993Z,99898.69
2022-12-03T14:25:39.423Z,99905.78
2022-12-03T14:28:09.672Z,99915.38
2022-12-03T14:30:38.187Z,99906.63
2022-12-03T14:33:08.326Z,99911.00
2022-12-03T14:35:37.340Z,99916.22
2022-12-03T14:38:05.699Z,99912.78
2022-12-03T14:40:35.004Z,99913.59
2022-12-03T14:43:03.500Z,99917.09
2022-12-03T14:45:32.247Z,99915.34
2022-12-03T14:48:00.764Z,99917.06
2022-12-03T14:50:30.878Z,99911.81
2022-12-03T14:52:59.353Z,99910.94
2022-12-03T14:55:28.163Z,99917.84
2022-12-03T14:57:56.674Z,99921.31
2022-12-03T15:00:25.654Z,99922.22
2022-12-03T15:02:54.205Z,99917.84
2022-12-03T15:05:28.495Z,99919.59
2022-12-03T15:07:59.053Z,99929.13
2022-12-03T15:10:27.809Z,99927.38
2022-12-03T15:12:56.178Z,99932.50
2022-12-03T15:15:24.825Z,99935.19
2022-12-03T15:17:53.236Z,99936.09
2022-12-03T15:20:21.914Z,99938.75
2022-12-03T15:22:50.290Z,99934.34
2022-12-03T15:25:24.574Z,99932.59
2022-12-03T15:27:53.029Z,99922.94
2022-12-03T15:30:21.746Z,99925.50
2022-12-03T15:32:50.178Z,99921.13
2022-12-03T15:35:18.967Z,99928.84
2022-12-03T15:37:47.395Z,99919.28
2022-12-03T15:40:16.348Z,99919.25
2022-12-03T15:42:46.135Z,99927.06
2022-12-03T15:45:15.450Z,99924.19
2022-12-03T15:47:44.466Z,99927.72
2022-12-03T15:50:14.260Z,99926.53
2022-12-03T15:52:42.679Z,99926.56
2022-12-03T15:55:12.203Z,99925.78
2022-12-03T15:57:40.897Z,99921.44
2022-12-03T16:00:14.420Z,99929.19
2022-12-03T16:02:50.871Z,99923.88
2022-12-03T16:05:21.525Z,99923.09
2022-12-03T16:07:50.052Z,99921.41
2022-12-03T16:10:21.473Z,99916.09
2022-12-03T16:12:52.492Z,99924.75
2022-12-03T16:15:27.039Z,99923.91
2022-12-03T16:17:55.979Z,99929.28
2022-12-03T16:20:24.791Z,99923.22
2022-12-03T16:22:53.318Z,99933.47
2022-12-03T16:25:22.089Z,99930.06
2022-12-03T16:27:50.717Z,99936.94
2022-12-03T16:30:19.731Z,99941.25
2022-12-03T16:32:49.555Z,99942.19
2022-12-03T16:35:18.556Z,99936.94
2022-12-03T16:37:47.049Z,99924.81
2022-12-03T16:40:15.932Z,99925.72
2022-12-03T16:42:44.424Z,99927.44
2022-12-03T16:45:31.224Z,99931.56
2022-12-03T16:48:01.998Z,99932.47
2022-12-03T16:50:31.006Z,99926.31
2022-12-03T16:52:59.633Z,99927.13
2022-12-03T16:55:28.326Z,99928.03
2022-12-03T16:57:56.770Z,99922.78
2022-12-03T17:00:26.349Z,99923.53
2022-12-03T17:02:54.801Z,99924.25
2022-12-03T17:05:25.028Z,99919.13
2022-12-03T17:07:53.590Z,99919.56
2022-12-03T17:10:22.372Z,99917.56
2022-12-03T17:15:40.634Z,99915.81
2022-12-03T17:18:10.004Z,99922.69
2022-12-03T17:20:40.216Z,99922.66
2022-12-03T17:23:08.965Z,99912.31
2022-12-03T17:25:37.846Z,99919.94
2022-12-03T17:28:06.591Z,99916.44
2022-12-03T17:30:35.385Z,99912.78
2022-12-03T17:33:04.124Z,99911.06
2022-12-03T17:35:32.941Z,99911.38
2022-12-03T17:38:03.090Z,99916.44
2022-12-03T17:40:31.954Z,99906.84
2022-12-03T17:43:00.421Z,99921.56
2022-12-03T17:45:29.268Z,99920.56
2022-12-03T17:47:57.666Z,99926.78
2022-12-03T17:50:26.867Z,99921.47
2022-12-03T17:52:55.262Z,99919.53
2022-12-03T17:55:35.935Z,99922.81
2022-12-03T17:58:07.343Z,99922.19
2022-12-03T18:00:36.071Z,99922.13
2022-12-03T18:03:04.913Z,99921.00
2022-12-03T18:05:33.683Z,99924.38
2022-12-03T18:08:02.312Z,99922.66
2022-12-03T18:10:32.841Z,99921.69
2022-12-03T18:13:02.424Z,99918.09
2022-12-03T18:15:31.617Z,99919.81
2022-12-03T18:18:00.275Z,99917.31
2022-12-03T18:20:29.485Z,99920.69
2022-12-03T18:22:59.180Z,99918.63
2022-12-03T18:25:29.838Z,99917.94
2022-12-03T18:27:59.955Z,99930.69
2022-12-03T18:30:28.859Z,99922.13
2022-12-03T18:32:57.474Z,99928.34
2022-12-03T18:35:26.665Z,99936.19
2022-12-03T18:37:55.395Z,99944.97
2022-12-03T18:40:27.235Z,99940.72
2022-12-03T18:42:57.195Z,99950.44
2022-12-03T18:45:27.565Z,99937.84
2022-12-03T18:47:56.809Z,99937.19
2022-12-03T18:50:25.804Z,99935.75
2022-12-03T18:52:54.455Z,99934.34
2022-12-03T18:55:23.305Z,99919.53
2022-12-03T18:57:51.970Z,99926.31
2022-12-03T19:00:21.390Z,99932.38
2022-12-03T19:03:06.590Z,99932.63
2022-12-03T19:05:36.432Z,99933.50
2022-12-03T19:08:12.574Z,99931.59
2022-12-03T19:10:42.277Z,99928.19
2022-12-03T19:13:10.938Z,99924.97
2022-12-03T19:15:40.364Z,99934.47
2022-12-03T19:18:10.216Z,99940.16
2022-12-03T19:20:41.676Z,99929.16
2022-12-03T19:23:11.454Z,99925.34
2022-12-03T19:25:40.363Z,99921.38
2022-12-03T19:28:09.096Z,99923.03
2022-12-03T19:30:37.982Z,99936.72
2022-12-03T19:33:06.520Z,99934.69
2022-12-03T19:35:43.068Z,99933.72
2022-12-03T19:38:11.767Z,99947.72
2022-12-03T19:40:40.910Z,99943.66
2022-12-03T19:43:09.421Z,99954.94
2022-12-03T19:45:38.307Z,99948.94
2022-12-03T19:48:07.058Z,99955.09
2022-12-03T19:50:35.925Z,99950.75
2022-12-03T19:53:05.916Z,99937.44
2022-12-03T19:55:36.396Z,99936.81
2022-12-03T19:58:04.991Z,99928.38
2022-12-03T20:00:35.780Z,99935.41
2022-12-03T20:03:04.827Z,99934.69
2022-12-03T20:05:37.372Z,99928.75
2022-12-03T20:08:08.383Z,99930.34
2022-12-03T20:10:38.097Z,99919.88
2022-12-03T20:13:06.746Z,99915.28
2022-12-03T20:15:38.211Z,99929.25
2022-12-03T20:18:07.002Z,99939.28
2022-12-03T20:20:35.795Z,99929.94
2022-12-03T20:23:04.324Z,99946.59
2022-12-03T20:25:37.883Z,99933.75
2022-12-03T20:28:06.617Z,99938.84
2022-12-03T20:30:35.613Z,99958.34
2022-12-03T20:33:04.090Z,99952.09
2022-12-03T20:35:34.572Z,99961.59
2022-12-03T20:38:03.134Z,99955.72
2022-12-03T20:40:31.857Z,99948.06
2022-12-03T20:43:01.839Z,99940.75
2022-12-03T20:45:30.713Z,99949.00
2022-12-03T20:47:59.240Z,99939.78
2022-12-03T20:50:28.050Z,99943.44
2022-12-03T20:53:22.735Z,99948.38
2022-12-03T20:55:45.457Z,99951.91
2022-12-03T20:58:15.475Z,99959.56
2022-12-03T21:00:44.181Z,99968.25
2022-12-03T21:03:12.687Z,99963.47
2022-12-03T21:05:42.565Z,99967.91
2022-12-03T21:08:11.072Z,99964.56
2022-12-03T21:10:46.029Z,99969.13
2022-12-03T21:13:18.056Z,99956.97
2022-12-03T21:15:47.426Z,99971.75
2022-12-03T21:18:18.559Z,99982.97
2022-12-03T21:20:49.019Z,99971.97
2022-12-03T21:23:17.633Z,99971.22
2022-12-03T21:25:46.598Z,99963.84
2022-12-03T21:28:16.381Z,99971.59
2022-12-03T21:30:45.620Z,99975.19
2022-12-03T21:33:14.031Z,99962.28
2022-12-03T21:35:42.949Z,99963.25
2022-12-03T21:38:11.440Z,99972.63
2022-12-03T21:40:40.255Z,99975.19
2022-12-03T21:43:08.789Z,99959.81
2022-12-03T21:45:42.296Z,99973.00
2022-12-03T21:48:10.858Z,99979.88
2022-12-03T21:50:39.549Z,99996.31
2022-12-03T21:53:08.796Z,99974.19
2022-12-03T21:55:40.765Z,99972.47
2022-12-03T21:58:10.374Z,99967.19
2022-12-03T22:00:39.995Z,99973.34
2022-12-03T22:03:09.941Z,99974.97
2022-12-03T22:05:39.642Z,99978.25
2022-12-03T22:08:08.377Z,99978.53
2022-12-03T22:10:37.502Z,99976.16
2022-12-03T22:13:06.754Z,99982.28
2022-12-03T22:15:36.035Z,99965.19
2022-12-03T22:18:04.873Z,99974.34
2022-12-03T22:20:35.064Z,99973.31
2022-12-03T22:23:03.612Z,99970.94
2022-12-03T22:25:32.367Z,99965.75
2022-12-03T22:28:00.962Z,99957.47
2022-12-03T22:30:29.846Z,99955.84
2022-12-03T22:32:58.269Z,99968.97
2022-12-03T22:35:26.903Z,99966.41
2022-12-03T22:37:56.726Z,99974.34
2022-12-03T22:40:25.353Z,99971.06
2022-12-03T22:42:53.783Z,99971.63
2022-12-03T22:45:22.641Z,99970.75
2022-12-03T22:47:51.096Z,99959.81
2022-12-03T22:50:19.883Z,99954.56
2022-12-03T22:52:48.288Z,99958.34
2022-12-03T22:55:18.423Z,99957.63
2022-12-03T22:57:46.883Z,99963.78
2022-12-03T23:00:18.214Z,99961.38
2022-12-03T23:02:46.816Z,99953.41
2022-12-03T23:05:15.823Z,99970.13
2022-12-03T23:07:44.240Z,99962.13
2022-12-03T23:10:13.599Z,99960.44
2022-12-03T23:12:43.366Z,99950.00
2022-12-03T23:15:12.748Z,99965.41
2022-12-03T23:17:41.247Z,99962.94
2022-12-03T23:20:11.051Z,99966.25
2022-12-03T23:22:39.517Z,99960.09
2022-12-03T23:25:09.634Z,99952.34
2022-12-03T23:27:38.005Z,99957.47
2022-12-03T23:30:10.353Z,99954.06
2022-12-03T23:32:38.863Z,99962.81
2022-12-03T23:35:08.851Z,99962.13
2022-12-03T23:37:37.435Z,99952.66
2022-12-03T23:40:07.566Z,99962.19
2022-12-03T23:42:36.230Z,99941.41
2022-12-03T23:45:05.499Z,99955.28
2022-12-03T23:47:35.369Z,99947.28
2022-12-03T23:50:04.575Z,99952.38
2022-12-03T23:52:33.011Z,99953.31
2022-12-03T23:55:01.845Z,99934.41
2022-12-03T23:57:30.374Z,99943.91
2022-12-03T23:59:59.030Z,99936.50
